sensor_id;sensor_type;location;lat;lon;timestamp;P1;durP1;ratioP1;P2;durP2;ratioP2
7817;SDS011;3954;52.624;9.212;2023-07-16T00:02:15;2.47;;;2.10;;
7817;SDS011;3954;52.624;9.212;2023-07-16T00:04:41;4.33;;;2.10;;
7817;SDS011;3954;52.624;9.212;2023-07-16T00:07:07;2.73;;;1.80;;
7817;SDS011;3954;52.624;9.212;2023-07-16T00:09:35;3.07;;;1.90;;
7817;SDS011;3954;52.624;9.212;2023-07-16T00:12:01;3.83;;;1.80;;
7817;SDS011;3954;52.624;9.212;2023-07-16T00:14:28;2.30;;;1.90;;
7817;SDS011;3954;52.624;9.212;2023-07-16T00:16:54;3.37;;;1.90;;
7817;SDS011;3954;52.624;9.212;2023-07-16T00:19:20;2.93;;;1.73;;
7817;SDS011;3954;52.624;9.212;2023-07-16T00:21:47;3.10;;;2.00;;
7817;SDS011;3954;52.624;9.212;2023-07-16T00:24:12;4.30;;;2.17;;
7817;SDS011;3954;52.624;9.212;2023-07-16T00:26:38;2.30;;;2.10;;
7817;SDS011;3954;52.624;9.212;2023-07-16T00:29:04;4.67;;;1.83;;
7817;SDS011;3954;52.624;9.212;2023-07-16T00:31:32;3.13;;;2.00;;
7817;SDS011;3954;52.624;9.212;2023-07-16T00:33:58;3.00;;;2.00;;
7817;SDS011;3954;52.624;9.212;2023-07-16T00:36:24;4.60;;;2.40;;
7817;SDS011;3954;52.624;9.212;2023-07-16T00:38:50;3.53;;;2.20;;
7817;SDS011;3954;52.624;9.212;2023-07-16T00:41:16;3.83;;;2.43;;
7817;SDS011;3954;52.624;9.212;2023-07-16T00:43:42;2.63;;;2.23;;
7817;SDS011;3954;52.624;9.212;2023-07-16T00:46:08;3.77;;;2.30;;
7817;SDS011;3954;52.624;9.212;2023-07-16T00:48:35;3.20;;;2.30;;
7817;SDS011;3954;52.624;9.212;2023-07-16T00:51:02;3.47;;;2.13;;
7817;SDS011;3954;52.624;9.212;2023-07-16T00:53:28;2.47;;;2.27;;
7817;SDS011;3954;52.624;9.212;2023-07-16T00:55:54;4.20;;;2.40;;
7817;SDS011;3954;52.624;9.212;2023-07-16T00:58:20;3.47;;;2.40;;
7817;SDS011;3954;52.624;9.212;2023-07-16T01:00:46;2.90;;;2.20;;
7817;SDS011;3954;52.624;9.212;2023-07-16T01:03:13;3.17;;;2.37;;
7817;SDS011;3954;52.624;9.212;2023-07-16T01:05:43;3.73;;;2.57;;
7817;SDS011;3954;52.624;9.212;2023-07-16T01:08:11;2.57;;;2.23;;
7817;SDS011;3954;52.624;9.212;2023-07-16T01:10:38;3.17;;;2.20;;
7817;SDS011;3954;52.624;9.212;2023-07-16T01:13:04;4.57;;;2.63;;
7817;SDS011;3954;52.624;9.212;2023-07-16T01:15:30;3.83;;;2.60;;
7817;SDS011;3954;52.624;9.212;2023-07-16T01:17:56;3.10;;;2.60;;
7817;SDS011;3954;52.624;9.212;2023-07-16T01:20:23;4.60;;;2.53;;
7817;SDS011;3954;52.624;9.212;2023-07-16T01:25:48;4.90;;;2.93;;
7817;SDS011;3954;52.624;9.212;2023-07-16T01:28:21;3.33;;;2.67;;
7817;SDS011;3954;52.624;9.212;2023-07-16T01:30:53;3.70;;;2.70;;
7817;SDS011;3954;52.624;9.212;2023-07-16T01:33:21;3.00;;;2.60;;
7817;SDS011;3954;52.624;9.212;2023-07-16T01:35:47;5.93;;;2.60;;
7817;SDS011;3954;52.624;9.212;2023-07-16T01:38:14;3.97;;;2.50;;
7817;SDS011;3954;52.624;9.212;2023-07-16T01:40:43;3.57;;;2.70;;
7817;SDS011;3954;52.624;9.212;2023-07-16T01:43:09;2.47;;;2.20;;
7817;SDS011;3954;52.624;9.212;2023-07-16T01:45:35;3.73;;;2.90;;
7817;SDS011;3954;52.624;9.212;2023-07-16T01:48:05;4.17;;;2.30;;
7817;SDS011;3954;52.624;9.212;2023-07-16T01:50:33;3.67;;;2.60;;
7817;SDS011;3954;52.624;9.212;2023-07-16T01:52:59;2.50;;;1.90;;
7817;SDS011;3954;52.624;9.212;2023-07-16T01:55:25;3.10;;;2.27;;
7817;SDS011;3954;52.624;9.212;2023-07-16T01:57:51;3.53;;;2.30;;
7817;SDS011;3954;52.624;9.212;2023-07-16T02:00:17;4.47;;;2.40;;
7817;SDS011;3954;52.624;9.212;2023-07-16T02:02:43;2.93;;;2.27;;
7817;SDS011;3954;52.624;9.212;2023-07-16T02:05:11;2.70;;;1.93;;
7817;SDS011;3954;52.624;9.212;2023-07-16T02:07:37;4.47;;;2.10;;
7817;SDS011;3954;52.624;9.212;2023-07-16T02:10:03;2.50;;;2.30;;
7817;SDS011;3954;52.624;9.212;2023-07-16T02:12:29;2.53;;;2.20;;
7817;SDS011;3954;52.624;9.212;2023-07-16T02:14:55;3.03;;;2.00;;
7817;SDS011;3954;52.624;9.212;2023-07-16T02:17:21;3.60;;;2.10;;
7817;SDS011;3954;52.624;9.212;2023-07-16T02:19:47;2.97;;;2.50;;
7817;SDS011;3954;52.624;9.212;2023-07-16T02:22:14;2.93;;;2.00;;
7817;SDS011;3954;52.624;9.212;2023-07-16T02:24:40;3.03;;;2.50;;
7817;SDS011;3954;52.624;9.212;2023-07-16T02:27:07;2.90;;;2.60;;
7817;SDS011;3954;52.624;9.212;2023-07-16T02:29:33;3.50;;;2.97;;
7817;SDS011;3954;52.624;9.212;2023-07-16T02:31:59;4.20;;;2.37;;
7817;SDS011;3954;52.624;9.212;2023-07-16T02:34:25;3.80;;;2.93;;
7817;SDS011;3954;52.624;9.212;2023-07-16T02:36:51;3.57;;;2.80;;
7817;SDS011;3954;52.624;9.212;2023-07-16T02:39:19;3.47;;;2.40;;
7817;SDS011;3954;52.624;9.212;2023-07-16T02:41:45;4.67;;;2.67;;
7817;SDS011;3954;52.624;9.212;2023-07-16T02:44:11;3.77;;;2.60;;
7817;SDS011;3954;52.624;9.212;2023-07-16T02:46:37;4.07;;;2.47;;
7817;SDS011;3954;52.624;9.212;2023-07-16T02:49:03;3.53;;;2.53;;
7817;SDS011;3954;52.624;9.212;2023-07-16T02:51:30;4.17;;;2.70;;
7817;SDS011;3954;52.624;9.212;2023-07-16T02:53:56;3.20;;;2.90;;
7817;SDS011;3954;52.624;9.212;2023-07-16T02:56:23;3.20;;;2.67;;
7817;SDS011;3954;52.624;9.212;2023-07-16T02:58:49;4.47;;;3.63;;
7817;SDS011;3954;52.624;9.212;2023-07-16T03:01:15;4.97;;;3.67;;
7817;SDS011;3954;52.624;9.212;2023-07-16T03:03:41;3.27;;;2.60;;
7817;SDS011;3954;52.624;9.212;2023-07-16T03:06:07;3.47;;;2.63;;
7817;SDS011;3954;52.624;9.212;2023-07-16T03:08:33;4.10;;;2.83;;
7817;SDS011;3954;52.624;9.212;2023-07-16T03:10:59;3.07;;;2.50;;
7817;SDS011;3954;52.624;9.212;2023-07-16T03:13:27;3.57;;;2.80;;
7817;SDS011;3954;52.624;9.212;2023-07-16T03:15:53;5.63;;;3.20;;
7817;SDS011;3954;52.624;9.212;2023-07-16T03:18:19;4.40;;;2.77;;
7817;SDS011;3954;52.624;9.212;2023-07-16T03:20:45;4.23;;;2.50;;
7817;SDS011;3954;52.624;9.212;2023-07-16T03:23:11;4.20;;;2.50;;
7817;SDS011;3954;52.624;9.212;2023-07-16T03:25:37;4.50;;;2.80;;
7817;SDS011;3954;52.624;9.212;2023-07-16T03:28:03;4.37;;;2.40;;
7817;SDS011;3954;52.624;9.212;2023-07-16T03:30:31;4.67;;;2.27;;
7817;SDS011;3954;52.624;9.212;2023-07-16T03:32:58;3.30;;;2.40;;
7817;SDS011;3954;52.624;9.212;2023-07-16T03:35:24;5.50;;;2.70;;
7817;SDS011;3954;52.624;9.212;2023-07-16T03:37:50;4.83;;;2.80;;
7817;SDS011;3954;52.624;9.212;2023-07-16T03:40:17;4.60;;;2.57;;
7817;SDS011;3954;52.624;9.212;2023-07-16T03:42:43;2.73;;;2.10;;
7817;SDS011;3954;52.624;9.212;2023-07-16T03:45:10;3.03;;;2.37;;
7817;SDS011;3954;52.624;9.212;2023-07-16T03:47:38;6.60;;;2.70;;
7817;SDS011;3954;52.624;9.212;2023-07-16T03:50:04;2.60;;;2.40;;
7817;SDS011;3954;52.624;9.212;2023-07-16T03:52:30;3.27;;;2.60;;
7817;SDS011;3954;52.624;9.212;2023-07-16T03:54:56;4.47;;;2.60;;
7817;SDS011;3954;52.624;9.212;2023-07-16T03:57:22;4.33;;;2.40;;
7817;SDS011;3954;52.624;9.212;2023-07-16T03:59:48;3.27;;;2.40;;
7817;SDS011;3954;52.624;9.212;2023-07-16T04:02:14;3.10;;;2.50;;
7817;SDS011;3954;52.624;9.212;2023-07-16T04:04:42;2.23;;;2.00;;
7817;SDS011;3954;52.624;9.212;2023-07-16T04:07:08;4.63;;;2.67;;
7817;SDS011;3954;52.624;9.212;2023-07-16T04:09:36;3.97;;;2.37;;
7817;SDS011;3954;52.624;9.212;2023-07-16T04:12:03;5.27;;;3.00;;
7817;SDS011;3954;52.624;9.212;2023-07-16T04:14:29;5.17;;;2.63;;
7817;SDS011;3954;52.624;9.212;2023-07-16T04:16:55;4.13;;;2.70;;
7817;SDS011;3954;52.624;9.212;2023-07-16T04:19:21;5.70;;;2.70;;
7817;SDS011;3954;52.624;9.212;2023-07-16T04:21:48;6.37;;;3.03;;
7817;SDS011;3954;52.624;9.212;2023-07-16T04:24:14;6.57;;;2.90;;
7817;SDS011;3954;52.624;9.212;2023-07-16T04:26:40;4.03;;;3.10;;
7817;SDS011;3954;52.624;9.212;2023-07-16T04:29:06;3.90;;;2.60;;
7817;SDS011;3954;52.624;9.212;2023-07-16T04:31:32;5.60;;;3.60;;
7817;SDS011;3954;52.624;9.212;2023-07-16T04:33:58;5.80;;;3.43;;
7817;SDS011;3954;52.624;9.212;2023-07-16T04:36:24;6.03;;;3.20;;
7817;SDS011;3954;52.624;9.212;2023-07-16T04:38:52;5.53;;;3.20;;
7817;SDS011;3954;52.624;9.212;2023-07-16T04:41:18;8.37;;;3.93;;
7817;SDS011;3954;52.624;9.212;2023-07-16T04:43:44;6.17;;;3.50;;
7817;SDS011;3954;52.624;9.212;2023-07-16T04:46:10;5.30;;;3.13;;
7817;SDS011;3954;52.624;9.212;2023-07-16T04:48:37;7.23;;;3.67;;
7817;SDS011;3954;52.624;9.212;2023-07-16T04:51:03;5.97;;;3.10;;
7817;SDS011;3954;52.624;9.212;2023-07-16T04:53:29;5.80;;;3.40;;
7817;SDS011;3954;52.624;9.212;2023-07-16T04:55:56;5.83;;;3.90;;
7817;SDS011;3954;52.624;9.212;2023-07-16T04:58:22;5.60;;;3.17;;
7817;SDS011;3954;52.624;9.212;2023-07-16T05:00:48;5.97;;;3.50;;
7817;SDS011;3954;52.624;9.212;2023-07-16T05:03:14;3.40;;;3.07;;
7817;SDS011;3954;52.624;9.212;2023-07-16T05:05:40;5.47;;;3.30;;
7817;SDS011;3954;52.624;9.212;2023-07-16T05:08:06;5.60;;;3.17;;
7817;SDS011;3954;52.624;9.212;2023-07-16T05:10:32;4.57;;;3.20;;
7817;SDS011;3954;52.624;9.212;2023-07-16T05:13:00;3.93;;;3.20;;
7817;SDS011;3954;52.624;9.212;2023-07-16T05:15:28;6.70;;;3.37;;
7817;SDS011;3954;52.624;9.212;2023-07-16T05:17:54;5.10;;;3.27;;
7817;SDS011;3954;52.624;9.212;2023-07-16T05:20:22;4.70;;;2.70;;
7817;SDS011;3954;52.624;9.212;2023-07-16T05:22:48;5.47;;;3.27;;
7817;SDS011;3954;52.624;9.212;2023-07-16T05:25:14;3.77;;;2.77;;
7817;SDS011;3954;52.624;9.212;2023-07-16T05:27:40;5.47;;;2.97;;
7817;SDS011;3954;52.624;9.212;2023-07-16T05:30:08;6.17;;;3.20;;
7817;SDS011;3954;52.624;9.212;2023-07-16T05:32:34;4.77;;;3.13;;
7817;SDS011;3954;52.624;9.212;2023-07-16T05:35:00;5.30;;;3.00;;
7817;SDS011;3954;52.624;9.212;2023-07-16T05:37:26;5.17;;;3.43;;
7817;SDS011;3954;52.624;9.212;2023-07-16T05:39:53;6.47;;;3.30;;
7817;SDS011;3954;52.624;9.212;2023-07-16T05:42:19;4.10;;;2.90;;
7817;SDS011;3954;52.624;9.212;2023-07-16T05:44:46;5.10;;;3.20;;
7817;SDS011;3954;52.624;9.212;2023-07-16T05:47:14;4.57;;;2.70;;
7817;SDS011;3954;52.624;9.212;2023-07-16T05:49:40;5.20;;;3.00;;
7817;SDS011;3954;52.624;9.212;2023-07-16T05:52:06;5.90;;;3.50;;
7817;SDS011;3954;52.624;9.212;2023-07-16T05:54:33;3.17;;;2.33;;
7817;SDS011;3954;52.624;9.212;2023-07-16T05:56:59;5.80;;;3.03;;
7817;SDS011;3954;52.624;9.212;2023-07-16T05:59:25;4.60;;;2.63;;
7817;SDS011;3954;52.624;9.212;2023-07-16T06:01:51;4.63;;;3.07;;
7817;SDS011;3954;52.624;9.212;2023-07-16T06:04:19;4.97;;;2.77;;
7817;SDS011;3954;52.624;9.212;2023-07-16T06:06:45;5.60;;;2.33;;
7817;SDS011;3954;52.624;9.212;2023-07-16T06:09:11;4.13;;;2.80;;
7817;SDS011;3954;52.624;9.212;2023-07-16T06:11:37;5.40;;;2.77;;
7817;SDS011;3954;52.624;9.212;2023-07-16T06:14:03;4.03;;;2.33;;
7817;SDS011;3954;52.624;9.212;2023-07-16T06:16:29;3.60;;;2.67;;
7817;SDS011;3954;52.624;9.212;2023-07-16T06:18:55;4.17;;;2.50;;
7817;SDS011;3954;52.624;9.212;2023-07-16T06:21:23;4.33;;;2.47;;
7817;SDS011;3954;52.624;9.212;2023-07-16T06:23:49;4.87;;;2.43;;
7817;SDS011;3954;52.624;9.212;2023-07-16T06:26:15;6.03;;;2.80;;
7817;SDS011;3954;52.624;9.212;2023-07-16T06:28:41;4.80;;;2.70;;
7817;SDS011;3954;52.624;9.212;2023-07-16T06:31:07;4.10;;;3.00;;
7817;SDS011;3954;52.624;9.212;2023-07-16T06:33:33;6.73;;;3.17;;
7817;SDS011;3954;52.624;9.212;2023-07-16T06:35:59;5.57;;;3.10;;
7817;SDS011;3954;52.624;9.212;2023-07-16T06:38:26;6.13;;;2.90;;
7817;SDS011;3954;52.624;9.212;2023-07-16T06:40:53;5.33;;;3.03;;
7817;SDS011;3954;52.624;9.212;2023-07-16T06:43:19;4.03;;;2.60;;
7817;SDS011;3954;52.624;9.212;2023-07-16T06:45:45;4.30;;;2.83;;
7817;SDS011;3954;52.624;9.212;2023-07-16T06:48:11;4.53;;;2.57;;
7817;SDS011;3954;52.624;9.212;2023-07-16T06:50:37;5.77;;;2.20;;
7817;SDS011;3954;52.624;9.212;2023-07-16T06:53:03;5.23;;;2.23;;
7817;SDS011;3954;52.624;9.212;2023-07-16T06:55:30;5.17;;;2.17;;
7817;SDS011;3954;52.624;9.212;2023-07-16T06:57:56;6.63;;;2.37;;
7817;SDS011;3954;52.624;9.212;2023-07-16T07:00:22;5.57;;;2.67;;
7817;SDS011;3954;52.624;9.212;2023-07-16T07:02:48;10.30;;;3.00;;
7817;SDS011;3954;52.624;9.212;2023-07-16T07:05:14;4.50;;;2.40;;
7817;SDS011;3954;52.624;9.212;2023-07-16T07:07:40;3.60;;;2.17;;
7817;SDS011;3954;52.624;9.212;2023-07-16T07:10:07;6.17;;;2.40;;
7817;SDS011;3954;52.624;9.212;2023-07-16T07:12:35;5.00;;;2.93;;
7817;SDS011;3954;52.624;9.212;2023-07-16T07:15:02;5.13;;;2.70;;
7817;SDS011;3954;52.624;9.212;2023-07-16T07:17:28;6.27;;;2.87;;
7817;SDS011;3954;52.624;9.212;2023-07-16T07:19:54;4.53;;;2.50;;
7817;SDS011;3954;52.624;9.212;2023-07-16T07:22:20;6.20;;;2.97;;
7817;SDS011;3954;52.624;9.212;2023-07-16T07:24:46;6.40;;;2.90;;
7817;SDS011;3954;52.624;9.212;2023-07-16T07:27:13;7.00;;;3.10;;
7817;SDS011;3954;52.624;9.212;2023-07-16T07:29:40;5.60;;;2.50;;
7817;SDS011;3954;52.624;9.212;2023-07-16T07:32:06;6.97;;;3.27;;
7817;SDS011;3954;52.624;9.212;2023-07-16T07:34:33;6.80;;;3.13;;
7817;SDS011;3954;52.624;9.212;2023-07-16T07:36:59;6.47;;;3.40;;
7817;SDS011;3954;52.624;9.212;2023-07-16T07:39:25;4.90;;;3.13;;
7817;SDS011;3954;52.624;9.212;2023-07-16T07:41:51;4.10;;;3.03;;
7817;SDS011;3954;52.624;9.212;2023-07-16T07:44:17;6.00;;;3.10;;
7817;SDS011;3954;52.624;9.212;2023-07-16T07:46:44;5.53;;;3.13;;
7817;SDS011;3954;52.624;9.212;2023-07-16T07:49:10;6.67;;;3.00;;
7817;SDS011;3954;52.624;9.212;2023-07-16T07:51:36;5.57;;;3.10;;
7817;SDS011;3954;52.624;9.212;2023-07-16T07:54:02;5.47;;;3.03;;
7817;SDS011;3954;52.624;9.212;2023-07-16T07:56:28;5.70;;;3.13;;
7817;SDS011;3954;52.624;9.212;2023-07-16T07:58:55;5.00;;;3.33;;
7817;SDS011;3954;52.624;9.212;2023-07-16T08:01:21;6.00;;;3.30;;
7817;SDS011;3954;52.624;9.212;2023-07-16T08:03:48;7.57;;;3.23;;
7817;SDS011;3954;52.624;9.212;2023-07-16T08:06:15;5.43;;;3.00;;
7817;SDS011;3954;52.624;9.212;2023-07-16T08:08:41;5.17;;;3.37;;
7817;SDS011;3954;52.624;9.212;2023-07-16T08:11:07;5.60;;;3.77;;
7817;SDS011;3954;52.624;9.212;2023-07-16T08:13:33;5.23;;;3.23;;
7817;SDS011;3954;52.624;9.212;2023-07-16T08:15:59;5.87;;;3.37;;
7817;SDS011;3954;52.624;9.212;2023-07-16T08:18:25;5.53;;;3.30;;
7817;SDS011;3954;52.624;9.212;2023-07-16T08:20:52;9.37;;;4.00;;
7817;SDS011;3954;52.624;9.212;2023-07-16T08:23:18;5.20;;;3.97;;
7817;SDS011;3954;52.624;9.212;2023-07-16T08:25:44;7.70;;;4.03;;
7817;SDS011;3954;52.624;9.212;2023-07-16T08:28:10;8.50;;;3.50;;
7817;SDS011;3954;52.624;9.212;2023-07-16T08:30:37;7.50;;;3.30;;
7817;SDS011;3954;52.624;9.212;2023-07-16T08:33:03;9.33;;;3.67;;
7817;SDS011;3954;52.624;9.212;2023-07-16T08:35:29;6.67;;;3.33;;
7817;SDS011;3954;52.624;9.212;2023-07-16T08:37:56;6.07;;;4.03;;
7817;SDS011;3954;52.624;9.212;2023-07-16T08:40:22;6.03;;;4.00;;
7817;SDS011;3954;52.624;9.212;2023-07-16T08:42:49;5.60;;;4.20;;
7817;SDS011;3954;52.624;9.212;2023-07-16T08:45:15;5.60;;;3.43;;
7817;SDS011;3954;52.624;9.212;2023-07-16T08:47:41;6.60;;;3.50;;
7817;SDS011;3954;52.624;9.212;2023-07-16T08:50:08;4.47;;;3.53;;
7817;SDS011;3954;52.624;9.212;2023-07-16T08:52:35;7.37;;;3.50;;
7817;SDS011;3954;52.624;9.212;2023-07-16T08:55:02;5.40;;;3.60;;
7817;SDS011;3954;52.624;9.212;2023-07-16T08:57:29;6.60;;;3.50;;
7817;SDS011;3954;52.624;9.212;2023-07-16T08:59:55;4.70;;;3.53;;
7817;SDS011;3954;52.624;9.212;2023-07-16T09:02:21;4.47;;;3.40;;
7817;SDS011;3954;52.624;9.212;2023-07-16T09:04:48;4.60;;;3.37;;
7817;SDS011;3954;52.624;9.212;2023-07-16T09:07:14;6.97;;;3.73;;
7817;SDS011;3954;52.624;9.212;2023-07-16T09:09:40;6.43;;;3.83;;
7817;SDS011;3954;52.624;9.212;2023-07-16T09:12:10;6.93;;;3.60;;
7817;SDS011;3954;52.624;9.212;2023-07-16T09:14:36;9.67;;;3.80;;
7817;SDS011;3954;52.624;9.212;2023-07-16T09:17:03;5.90;;;3.43;;
7817;SDS011;3954;52.624;9.212;2023-07-16T09:19:31;5.53;;;3.30;;
7817;SDS011;3954;52.624;9.212;2023-07-16T09:21:58;6.60;;;3.20;;
7817;SDS011;3954;52.624;9.212;2023-07-16T09:24:25;4.97;;;3.17;;
7817;SDS011;3954;52.624;9.212;2023-07-16T09:26:51;5.13;;;3.50;;
7817;SDS011;3954;52.624;9.212;2023-07-16T09:29:19;6.87;;;2.97;;
7817;SDS011;3954;52.624;9.212;2023-07-16T09:31:54;4.83;;;3.30;;
7817;SDS011;3954;52.624;9.212;2023-07-16T09:34:21;6.40;;;3.67;;
7817;SDS011;3954;52.624;9.212;2023-07-16T09:36:47;4.83;;;3.10;;
7817;SDS011;3954;52.624;9.212;2023-07-16T09:39:14;5.50;;;3.00;;
7817;SDS011;3954;52.624;9.212;2023-07-16T09:41:41;7.40;;;3.53;;
7817;SDS011;3954;52.624;9.212;2023-07-16T09:44:07;4.23;;;3.03;;
7817;SDS011;3954;52.624;9.212;2023-07-16T09:46:34;3.83;;;2.90;;
7817;SDS011;3954;52.624;9.212;2023-07-16T09:49:00;3.60;;;3.20;;
7817;SDS011;3954;52.624;9.212;2023-07-16T09:51:26;4.57;;;2.73;;
7817;SDS011;3954;52.624;9.212;2023-07-16T09:53:53;5.17;;;3.20;;
7817;SDS011;3954;52.624;9.212;2023-07-16T09:56:20;7.43;;;3.53;;
7817;SDS011;3954;52.624;9.212;2023-07-16T09:58:46;5.50;;;3.00;;
7817;SDS011;3954;52.624;9.212;2023-07-16T10:01:12;4.63;;;2.90;;
7817;SDS011;3954;52.624;9.212;2023-07-16T10:03:49;7.17;;;3.00;;
7817;SDS011;3954;52.624;9.212;2023-07-16T10:06:15;7.47;;;3.00;;
7817;SDS011;3954;52.624;9.212;2023-07-16T10:08:48;4.30;;;2.87;;
7817;SDS011;3954;52.624;9.212;2023-07-16T10:11:15;4.80;;;2.80;;
7817;SDS011;3954;52.624;9.212;2023-07-16T10:13:42;3.17;;;2.87;;
7817;SDS011;3954;52.624;9.212;2023-07-16T10:16:08;4.23;;;2.40;;
7817;SDS011;3954;52.624;9.212;2023-07-16T10:18:36;4.23;;;2.90;;
7817;SDS011;3954;52.624;9.212;2023-07-16T10:21:04;4.57;;;2.67;;
7817;SDS011;3954;52.624;9.212;2023-07-16T10:23:36;4.93;;;2.90;;
7817;SDS011;3954;52.624;9.212;2023-07-16T10:26:03;4.73;;;2.77;;
7817;SDS011;3954;52.624;9.212;2023-07-16T10:28:34;8.73;;;3.37;;
7817;SDS011;3954;52.624;9.212;2023-07-16T10:31:00;5.07;;;2.77;;
7817;SDS011;3954;52.624;9.212;2023-07-16T10:33:26;5.10;;;2.87;;
7817;SDS011;3954;52.624;9.212;2023-07-16T10:35:52;5.40;;;2.90;;
7817;SDS011;3954;52.624;9.212;2023-07-16T10:38:19;3.83;;;2.37;;
7817;SDS011;3954;52.624;9.212;2023-07-16T10:40:45;3.60;;;2.67;;
7817;SDS011;3954;52.624;9.212;2023-07-16T10:43:11;3.47;;;2.70;;
7817;SDS011;3954;52.624;9.212;2023-07-16T10:45:37;7.73;;;2.77;;
7817;SDS011;3954;52.624;9.212;2023-07-16T10:48:04;5.63;;;3.33;;
7817;SDS011;3954;52.624;9.212;2023-07-16T10:50:31;3.70;;;2.70;;
7817;SDS011;3954;52.624;9.212;2023-07-16T10:52:58;6.63;;;3.30;;
7817;SDS011;3954;52.624;9.212;2023-07-16T10:55:27;6.17;;;2.77;;
7817;SDS011;3954;52.624;9.212;2023-07-16T10:57:53;4.20;;;2.97;;
7817;SDS011;3954;52.624;9.212;2023-07-16T11:00:20;5.13;;;2.73;;
7817;SDS011;3954;52.624;9.212;2023-07-16T11:02:46;5.03;;;2.70;;
7817;SDS011;3954;52.624;9.212;2023-07-16T11:05:13;4.53;;;2.80;;
7817;SDS011;3954;52.624;9.212;2023-07-16T11:07:42;5.20;;;2.97;;
7817;SDS011;3954;52.624;9.212;2023-07-16T11:10:09;3.10;;;2.50;;
7817;SDS011;3954;52.624;9.212;2023-07-16T11:12:36;4.37;;;2.60;;
7817;SDS011;3954;52.624;9.212;2023-07-16T11:15:02;4.73;;;3.00;;
7817;SDS011;3954;52.624;9.212;2023-07-16T11:17:28;3.73;;;2.60;;
7817;SDS011;3954;52.624;9.212;2023-07-16T11:19:55;6.60;;;3.10;;
7817;SDS011;3954;52.624;9.212;2023-07-16T11:22:24;4.70;;;2.80;;
7817;SDS011;3954;52.624;9.212;2023-07-16T11:24:51;3.73;;;2.60;;
7817;SDS011;3954;52.624;9.212;2023-07-16T11:27:17;3.60;;;2.53;;
7817;SDS011;3954;52.624;9.212;2023-07-16T11:29:48;6.00;;;2.80;;
7817;SDS011;3954;52.624;9.212;2023-07-16T11:32:25;4.93;;;2.50;;
7817;SDS011;3954;52.624;9.212;2023-07-16T11:34:52;5.40;;;2.83;;
7817;SDS011;3954;52.624;9.212;2023-07-16T11:37:19;5.23;;;3.03;;
7817;SDS011;3954;52.624;9.212;2023-07-16T11:39:46;3.73;;;2.87;;
7817;SDS011;3954;52.624;9.212;2023-07-16T11:42:13;10.83;;;3.93;;
7817;SDS011;3954;52.624;9.212;2023-07-16T11:44:39;3.57;;;3.27;;
7817;SDS011;3954;52.624;9.212;2023-07-16T11:47:06;4.83;;;4.10;;
7817;SDS011;3954;52.624;9.212;2023-07-16T11:49:32;4.30;;;3.47;;
7817;SDS011;3954;52.624;9.212;2023-07-16T11:51:58;7.07;;;2.67;;
7817;SDS011;3954;52.624;9.212;2023-07-16T11:54:24;4.23;;;2.73;;
7817;SDS011;3954;52.624;9.212;2023-07-16T11:56:50;3.60;;;2.87;;
7817;SDS011;3954;52.624;9.212;2023-07-16T11:59:16;4.47;;;3.00;;
7817;SDS011;3954;52.624;9.212;2023-07-16T12:01:46;4.80;;;2.70;;
7817;SDS011;3954;52.624;9.212;2023-07-16T12:04:15;3.57;;;2.57;;
7817;SDS011;3954;52.624;9.212;2023-07-16T12:06:41;4.63;;;2.57;;
7817;SDS011;3954;52.624;9.212;2023-07-16T12:09:07;5.20;;;2.47;;
7817;SDS011;3954;52.624;9.212;2023-07-16T12:11:33;3.77;;;2.40;;
7817;SDS011;3954;52.624;9.212;2023-07-16T12:14:00;4.40;;;2.83;;
7817;SDS011;3954;52.624;9.212;2023-07-16T12:16:26;3.93;;;2.63;;
7817;SDS011;3954;52.624;9.212;2023-07-16T12:18:52;4.27;;;2.60;;
7817;SDS011;3954;52.624;9.212;2023-07-16T12:21:19;4.07;;;2.63;;
7817;SDS011;3954;52.624;9.212;2023-07-16T12:23:45;3.20;;;2.60;;
7817;SDS011;3954;52.624;9.212;2023-07-16T12:26:11;3.77;;;2.60;;
7817;SDS011;3954;52.624;9.212;2023-07-16T12:28:37;3.73;;;2.50;;
7817;SDS011;3954;52.624;9.212;2023-07-16T12:31:03;5.00;;;3.00;;
7817;SDS011;3954;52.624;9.212;2023-07-16T12:33:29;3.20;;;2.70;;
7817;SDS011;3954;52.624;9.212;2023-07-16T12:35:55;3.33;;;2.73;;
7817;SDS011;3954;52.624;9.212;2023-07-16T12:38:23;6.47;;;2.90;;
7817;SDS011;3954;52.624;9.212;2023-07-16T12:40:49;5.23;;;3.13;;
7817;SDS011;3954;52.624;9.212;2023-07-16T12:43:15;4.47;;;2.50;;
7817;SDS011;3954;52.624;9.212;2023-07-16T12:45:41;3.20;;;2.60;;
7817;SDS011;3954;52.624;9.212;2023-07-16T12:48:07;3.33;;;2.70;;
7817;SDS011;3954;52.624;9.212;2023-07-16T12:50:33;9.27;;;2.90;;
7817;SDS011;3954;52.624;9.212;2023-07-16T12:52:59;3.60;;;2.33;;
7817;SDS011;3954;52.624;9.212;2023-07-16T12:55:26;4.30;;;2.60;;
7817;SDS011;3954;52.624;9.212;2023-07-16T12:57:52;5.80;;;2.80;;
7817;SDS011;3954;52.624;9.212;2023-07-16T13:00:18;4.93;;;2.90;;
7817;SDS011;3954;52.624;9.212;2023-07-16T13:02:44;5.70;;;2.80;;
7817;SDS011;3954;52.624;9.212;2023-07-16T13:05:10;5.63;;;2.80;;
7817;SDS011;3954;52.624;9.212;2023-07-16T13:07:36;4.83;;;2.60;;
7817;SDS011;3954;52.624;9.212;2023-07-16T13:10:02;6.10;;;2.77;;
7817;SDS011;3954;52.624;9.212;2023-07-16T13:12:30;6.13;;;2.63;;
7817;SDS011;3954;52.624;9.212;2023-07-16T13:14:57;4.93;;;2.87;;
7817;SDS011;3954;52.624;9.212;2023-07-16T13:17:23;2.90;;;2.50;;
7817;SDS011;3954;52.624;9.212;2023-07-16T13:19:49;4.93;;;2.20;;
7817;SDS011;3954;52.624;9.212;2023-07-16T13:22:15;5.13;;;2.50;;
7817;SDS011;3954;52.624;9.212;2023-07-16T13:24:41;3.53;;;2.23;;
7817;SDS011;3954;52.624;9.212;2023-07-16T13:27:09;4.03;;;2.50;;
7817;SDS011;3954;52.624;9.212;2023-07-16T13:29:36;5.03;;;2.60;;
7817;SDS011;3954;52.624;9.212;2023-07-16T13:32:03;5.63;;;2.70;;
7817;SDS011;3954;52.624;9.212;2023-07-16T13:34:29;3.70;;;2.70;;
7817;SDS011;3954;52.624;9.212;2023-07-16T13:36:55;5.13;;;2.87;;
7817;SDS011;3954;52.624;9.212;2023-07-16T13:39:21;2.87;;;2.37;;
7817;SDS011;3954;52.624;9.212;2023-07-16T13:41:47;4.43;;;2.53;;
7817;SDS011;3954;52.624;9.212;2023-07-16T13:44:14;6.13;;;3.27;;
7817;SDS011;3954;52.624;9.212;2023-07-16T13:46:42;5.67;;;2.87;;
7817;SDS011;3954;52.624;9.212;2023-07-16T13:49:08;5.53;;;2.47;;
7817;SDS011;3954;52.624;9.212;2023-07-16T13:51:34;3.57;;;2.50;;
7817;SDS011;3954;52.624;9.212;2023-07-16T13:54:00;3.83;;;2.60;;
7817;SDS011;3954;52.624;9.212;2023-07-16T13:56:26;3.90;;;2.57;;
7817;SDS011;3954;52.624;9.212;2023-07-16T13:58:52;3.50;;;2.40;;
7817;SDS011;3954;52.624;9.212;2023-07-16T14:01:19;7.03;;;2.83;;
7817;SDS011;3954;52.624;9.212;2023-07-16T14:03:46;3.47;;;2.20;;
7817;SDS011;3954;52.624;9.212;2023-07-16T14:06:12;4.63;;;2.50;;
7817;SDS011;3954;52.624;9.212;2023-07-16T14:08:38;6.03;;;3.00;;
7817;SDS011;3954;52.624;9.212;2023-07-16T14:11:04;3.73;;;2.50;;
7817;SDS011;3954;52.624;9.212;2023-07-16T14:13:31;3.10;;;2.47;;
7817;SDS011;3954;52.624;9.212;2023-07-16T14:15:57;5.43;;;2.53;;
7817;SDS011;3954;52.624;9.212;2023-07-16T14:18:23;4.60;;;2.70;;
7817;SDS011;3954;52.624;9.212;2023-07-16T14:20:50;4.80;;;2.40;;
7817;SDS011;3954;52.624;9.212;2023-07-16T14:23:16;3.47;;;2.50;;
7817;SDS011;3954;52.624;9.212;2023-07-16T14:25:42;5.20;;;2.30;;
7817;SDS011;3954;52.624;9.212;2023-07-16T14:28:08;5.00;;;2.57;;
7817;SDS011;3954;52.624;9.212;2023-07-16T14:30:34;3.97;;;2.30;;
7817;SDS011;3954;52.624;9.212;2023-07-16T14:33:00;3.77;;;2.50;;
7817;SDS011;3954;52.624;9.212;2023-07-16T14:35:28;3.00;;;2.40;;
7817;SDS011;3954;52.624;9.212;2023-07-16T14:37:56;3.53;;;2.50;;
7817;SDS011;3954;52.624;9.212;2023-07-16T14:40:22;4.67;;;2.43;;
7817;SDS011;3954;52.624;9.212;2023-07-16T14:42:48;3.33;;;2.80;;
7817;SDS011;3954;52.624;9.212;2023-07-16T14:45:14;2.97;;;2.30;;
7817;SDS011;3954;52.624;9.212;2023-07-16T14:47:40;4.53;;;2.40;;
7817;SDS011;3954;52.624;9.212;2023-07-16T14:50:06;2.83;;;2.33;;
7817;SDS011;3954;52.624;9.212;2023-07-16T14:52:32;3.47;;;2.63;;
7817;SDS011;3954;52.624;9.212;2023-07-16T14:55:01;3.93;;;2.60;;
7817;SDS011;3954;52.624;9.212;2023-07-16T14:57:29;5.33;;;2.50;;
7817;SDS011;3954;52.624;9.212;2023-07-16T14:59:55;5.07;;;2.73;;
7817;SDS011;3954;52.624;9.212;2023-07-16T15:02:21;4.63;;;2.30;;
7817;SDS011;3954;52.624;9.212;2023-07-16T15:04:47;3.70;;;2.53;;
7817;SDS011;3954;52.624;9.212;2023-07-16T15:07:13;4.20;;;2.47;;
7817;SDS011;3954;52.624;9.212;2023-07-16T15:09:39;5.53;;;2.83;;
7817;SDS011;3954;52.624;9.212;2023-07-16T15:12:07;3.20;;;2.30;;
7817;SDS011;3954;52.624;9.212;2023-07-16T15:14:33;3.27;;;2.30;;